createdAt,value
2023-05-22T18:57:26.687Z,3.80
2023-05-22T19:00:19.422Z,3.80
2023-05-22T19:03:11.467Z,4.00
2023-05-22T19:06:03.409Z,3.80
2023-05-22T19:08:55.333Z,4.20
2023-05-22T19:11:47.084Z,3.60
2023-05-22T19:14:38.989Z,3.80
2023-05-22T19:17:30.970Z,3.80
2023-05-22T19:20:23.121Z,3.80
2023-05-22T19:23:14.914Z,4.00
2023-05-22T19:26:06.802Z,3.30
2023-05-22T19:28:59.414Z,3.90
2023-05-22T19:31:51.329Z,3.90
2023-05-22T19:34:43.230Z,3.70
2023-05-22T19:37:35.036Z,3.80
2023-05-22T19:40:27.272Z,3.50
2023-05-22T19:43:19.255Z,3.60
2023-05-22T19:46:10.968Z,3.60
2023-05-22T19:49:02.823Z,3.40
2023-05-22T19:51:56.143Z,3.80
2023-05-22T19:54:48.186Z,3.50
2023-05-22T19:57:39.821Z,3.50
2023-05-22T20:00:31.906Z,3.50
2023-05-22T20:03:24.402Z,3.70
2023-05-22T20:06:16.486Z,3.80
2023-05-22T20:09:09.054Z,3.60
2023-05-22T20:12:01.350Z,4.10
2023-05-22T20:14:53.084Z,3.90
2023-05-22T20:17:47.812Z,3.40
2023-05-22T20:20:39.845Z,3.80
2023-05-22T20:23:31.829Z,3.50
2023-05-22T20:26:23.591Z,3.90
2023-05-22T20:29:15.308Z,3.90
2023-05-22T20:32:08.770Z,3.50
2023-05-22T20:35:00.594Z,4.00
2023-05-22T20:37:53.351Z,4.20
2023-05-22T20:40:47.736Z,4.20
2023-05-22T20:43:43.076Z,3.30
2023-05-22T20:46:35.355Z,4.50
2023-05-22T20:49:27.972Z,4.20
2023-05-22T20:52:21.094Z,3.90
2023-05-22T20:55:13.924Z,3.80
2023-05-22T20:58:06.375Z,3.60
2023-05-22T21:00:58.238Z,3.90
2023-05-22T21:03:51.515Z,4.60
2023-05-22T21:06:43.676Z,4.90
2023-05-22T21:09:35.426Z,5.00
2023-05-22T21:12:27.727Z,5.40
2023-05-22T21:15:19.499Z,4.80
2023-05-22T21:18:11.279Z,4.40
2023-05-22T21:21:03.122Z,4.20
2023-05-22T21:23:54.853Z,4.20
2023-05-22T21:26:46.658Z,5.00
2023-05-22T21:29:38.440Z,5.50
2023-05-22T21:32:30.190Z,5.10
2023-05-22T21:35:22.049Z,5.10
2023-05-22T21:38:13.811Z,5.30
2023-05-22T21:41:05.715Z,4.70
2023-05-22T21:43:57.434Z,6.20
2023-05-22T21:46:51.319Z,5.10
2023-05-22T21:49:43.332Z,6.00
2023-05-22T21:52:35.114Z,5.50
2023-05-22T21:55:27.184Z,5.90
2023-05-22T21:58:19.199Z,5.10
2023-05-22T22:01:11.064Z,5.10
2023-05-22T22:04:02.926Z,4.90
2023-05-22T22:06:54.970Z,4.70
2023-05-22T22:09:46.807Z,4.80
2023-05-22T22:12:38.518Z,5.70
2023-05-22T22:15:31.667Z,6.00
2023-05-22T22:18:23.437Z,5.10
2023-05-22T22:21:15.436Z,5.60
2023-05-22T22:24:07.933Z,5.70
2023-05-22T22:26:59.621Z,4.60
2023-05-22T22:29:51.359Z,5.20
2023-05-22T22:32:43.089Z,6.40
2023-05-22T22:35:34.817Z,5.90
2023-05-22T22:38:26.841Z,5.60
2023-05-22T22:41:19.201Z,5.20
2023-05-22T22:44:10.868Z,5.70
2023-05-22T22:47:07.813Z,5.80
2023-05-22T22:49:59.480Z,6.10
2023-05-22T22:52:51.343Z,5.50
2023-05-22T22:55:43.549Z,4.70
2023-05-22T22:58:36.563Z,6.30
2023-05-22T23:01:28.313Z,6.10
2023-05-22T23:04:20.342Z,5.80
2023-05-22T23:07:12.278Z,5.70
2023-05-22T23:10:04.291Z,7.00
2023-05-22T23:12:55.948Z,7.00
2023-05-22T23:15:48.218Z,6.80
2023-05-22T23:18:40.085Z,6.40
2023-05-22T23:21:32.201Z,6.90
2023-05-22T23:24:23.828Z,6.40
2023-05-22T23:27:15.871Z,6.00
2023-05-22T23:30:10.029Z,7.20
2023-05-22T23:33:02.786Z,6.10
2023-05-22T23:35:54.538Z,7.20
2023-05-22T23:38:47.139Z,6.00
2023-05-22T23:41:38.883Z,6.70
2023-05-22T23:44:30.997Z,6.80
2023-05-22T23:47:22.741Z,7.40
2023-05-22T23:50:15.332Z,6.30
2023-05-22T23:53:09.165Z,7.40
2023-05-22T23:56:01.185Z,6.70
2023-05-22T23:58:52.904Z,7.30
